sensor_id;sensor_type;location;lat;lon;timestamp;pressure;altitude;pressure_sealevel;temperature;humidity
46015;BME280;36844;51.898;-0.874;2024-02-04T00:01:13;101454.50;;;18.83;
46015;BME280;36844;51.898;-0.874;2024-02-04T00:03:38;101446.38;;;18.76;
46015;BME280;36844;51.898;-0.874;2024-02-04T00:06:04;101439.41;;;18.75;
46015;BME280;36844;51.898;-0.874;2024-02-04T00:08:29;101444.44;;;18.73;
46015;BME280;36844;51.898;-0.874;2024-02-04T00:10:55;101440.50;;;18.67;
46015;BME280;36844;51.898;-0.874;2024-02-04T00:13:20;101431.22;;;18.61;
46015;BME280;36844;51.898;-0.874;2024-02-04T00:15:46;101453.69;;;18.75;
46015;BME280;36844;51.898;-0.874;2024-02-04T00:18:11;101448.59;;;18.67;
46015;BME280;36844;51.898;-0.874;2024-02-04T00:20:37;101458.69;;;18.70;
46015;BME280;36844;51.898;-0.874;2024-02-04T00:23:02;101449.00;;;18.65;
46015;BME280;36844;51.898;-0.874;2024-02-04T00:25:27;101450.91;;;18.65;
46015;BME280;36844;51.898;-0.874;2024-02-04T00:27:54;101457.47;;;18.67;
46015;BME280;36844;51.898;-0.874;2024-02-04T00:30:19;101441.69;;;18.66;
46015;BME280;36844;51.898;-0.874;2024-02-04T00:32:44;101442.41;;;18.59;
46015;BME280;36844;51.898;-0.874;2024-02-04T00:35:10;101449.00;;;18.65;
46015;BME280;36844;51.898;-0.874;2024-02-04T00:37:35;101439.69;;;18.59;
46015;BME280;36844;51.898;-0.874;2024-02-04T00:40:00;101438.16;;;18.58;
46015;BME280;36844;51.898;-0.874;2024-02-04T00:42:26;101444.31;;;18.59;
46015;BME280;36844;51.898;-0.874;2024-02-04T00:44:51;101438.50;;;18.53;
46015;BME280;36844;51.898;-0.874;2024-02-04T00:47:16;101433.47;;;18.48;
46015;BME280;36844;51.898;-0.874;2024-02-04T00:49:41;101436.53;;;18.47;
46015;BME280;36844;51.898;-0.874;2024-02-04T00:52:07;101456.25;;;18.54;
46015;BME280;36844;51.898;-0.874;2024-02-04T00:54:32;101465.06;;;18.51;
46015;BME280;36844;51.898;-0.874;2024-02-04T00:56:58;101460.81;;;18.47;
46015;BME280;36844;51.898;-0.874;2024-02-04T00:59:24;101457.31;;;18.43;
46015;BME280;36844;51.898;-0.874;2024-02-04T01:01:50;101462.72;;;18.46;
46015;BME280;36844;51.898;-0.874;2024-02-04T01:04:15;101477.81;;;18.51;
46015;BME280;36844;51.898;-0.874;2024-02-04T01:06:40;101458.84;;;18.44;
46015;BME280;36844;51.898;-0.874;2024-02-04T01:09:05;101459.19;;;18.39;
46015;BME280;36844;51.898;-0.874;2024-02-04T01:11:31;101471.97;;;18.45;
46015;BME280;36844;51.898;-0.874;2024-02-04T01:13:57;101465.38;;;18.39;
46015;BME280;36844;51.898;-0.874;2024-02-04T01:16:22;101467.72;;;18.44;
46015;BME280;36844;51.898;-0.874;2024-02-04T01:18:47;101454.19;;;18.37;
46015;BME280;36844;51.898;-0.874;2024-02-04T01:21:13;101430.63;;;18.31;
46015;BME280;36844;51.898;-0.874;2024-02-04T01:23:38;101428.28;;;18.29;
46015;BME280;36844;51.898;-0.874;2024-02-04T01:26:03;101434.88;;;18.32;
46015;BME280;36844;51.898;-0.874;2024-02-04T01:28:29;101425.56;;;18.26;
46015;BME280;36844;51.898;-0.874;2024-02-04T01:30:54;101438.72;;;18.31;
46015;BME280;36844;51.898;-0.874;2024-02-04T01:33:20;101418.16;;;18.16;
46015;BME280;36844;51.898;-0.874;2024-02-04T01:35:45;101439.03;;;18.26;
46015;BME280;36844;51.898;-0.874;2024-02-04T01:38:10;101424.41;;;18.23;
46015;BME280;36844;51.898;-0.874;2024-02-04T01:40:36;101437.56;;;18.32;
46015;BME280;36844;51.898;-0.874;2024-02-04T01:43:01;101422.88;;;18.26;
46015;BME280;36844;51.898;-0.874;2024-02-04T01:45:26;101411.69;;;18.20;
46015;BME280;36844;51.898;-0.874;2024-02-04T01:47:52;101419.03;;;18.27;
46015;BME280;36844;51.898;-0.874;2024-02-04T01:50:19;101401.25;;;18.22;
46015;BME280;36844;51.898;-0.874;2024-02-04T01:52:44;101404.31;;;18.21;
46015;BME280;36844;51.898;-0.874;2024-02-04T01:55:11;101409.69;;;18.21;
46015;BME280;36844;51.898;-0.874;2024-02-04T01:57:36;101394.69;;;18.16;
46015;BME280;36844;51.898;-0.874;2024-02-04T02:00:02;101403.16;;;18.18;
46015;BME280;36844;51.898;-0.874;2024-02-04T02:02:29;101407.72;;;18.14;
46015;BME280;36844;51.898;-0.874;2024-02-04T02:04:56;101417.00;;;18.17;
46015;BME280;36844;51.898;-0.874;2024-02-04T02:07:22;101410.84;;;18.13;
46015;BME280;36844;51.898;-0.874;2024-02-04T02:09:49;101416.22;;;18.13;
46015;BME280;36844;51.898;-0.874;2024-02-04T02:12:19;101413.88;;;18.11;
46015;BME280;36844;51.898;-0.874;2024-02-04T02:14:58;101423.16;;;18.17;
46015;BME280;36844;51.898;-0.874;2024-02-04T02:17:33;101418.13;;;18.12;
46015;BME280;36844;51.898;-0.874;2024-02-04T02:20:12;101401.50;;;18.07;
46015;BME280;36844;51.898;-0.874;2024-02-04T02:25:28;101412.28;;;18.07;
46015;BME280;36844;51.898;-0.874;2024-02-04T02:27:54;101404.16;;;18.03;
46015;BME280;36844;51.898;-0.874;2024-02-04T02:30:20;101412.63;;;18.02;
46015;BME280;36844;51.898;-0.874;2024-02-04T02:32:46;101389.41;;;17.90;
46015;BME280;36844;51.898;-0.874;2024-02-04T02:35:12;101401.47;;;18.03;
46015;BME280;36844;51.898;-0.874;2024-02-04T02:37:43;101404.97;;;18.07;
46015;BME280;36844;51.898;-0.874;2024-02-04T02:42:42;101390.63;;;17.96;
46015;BME280;36844;51.898;-0.874;2024-02-04T02:45:08;101398.31;;;17.94;
46015;BME280;36844;51.898;-0.874;2024-02-04T02:47:34;101401.09;;;18.01;
46015;BME280;36844;51.898;-0.874;2024-02-04T02:50:01;101393.34;;;18.00;
46015;BME280;36844;51.898;-0.874;2024-02-04T02:52:27;101396.84;;;18.00;
46015;BME280;36844;51.898;-0.874;2024-02-04T02:54:52;101370.53;;;17.90;
46015;BME280;36844;51.898;-0.874;2024-02-04T02:57:17;101372.91;;;17.92;
46015;BME280;36844;51.898;-0.874;2024-02-04T02:59:43;101362.13;;;17.92;
46015;BME280;36844;51.898;-0.874;2024-02-04T03:02:08;101365.56;;;17.92;
46015;BME280;36844;51.898;-0.874;2024-02-04T03:04:33;101380.63;;;17.97;
46015;BME280;36844;51.898;-0.874;2024-02-04T03:06:59;101372.09;;;17.88;
46015;BME280;36844;51.898;-0.874;2024-02-04T03:09:24;101356.63;;;17.85;
46015;BME280;36844;51.898;-0.874;2024-02-04T03:11:50;101376.31;;;17.89;
46015;BME280;36844;51.898;-0.874;2024-02-04T03:14:15;101369.72;;;17.86;
46015;BME280;36844;51.898;-0.874;2024-02-04T03:16:43;101363.50;;;17.78;
46015;BME280;36844;51.898;-0.874;2024-02-04T03:19:09;101373.59;;;17.85;
46015;BME280;36844;51.898;-0.874;2024-02-04T03:21:34;101360.09;;;17.82;
46015;BME280;36844;51.898;-0.874;2024-02-04T03:24:00;101369.72;;;17.86;
46015;BME280;36844;51.898;-0.874;2024-02-04T03:26:25;101370.13;;;17.85;
46015;BME280;36844;51.898;-0.874;2024-02-04T03:28:50;101373.22;;;17.87;
46015;BME280;36844;51.898;-0.874;2024-02-04T03:31:23;101368.22;;;17.89;
46015;BME280;36844;51.898;-0.874;2024-02-04T03:33:48;101372.09;;;17.88;
46015;BME280;36844;51.898;-0.874;2024-02-04T03:36:22;101378.97;;;17.85;
46015;BME280;36844;51.898;-0.874;2024-02-04T03:38:49;101361.19;;;17.77;
46015;BME280;36844;51.898;-0.874;2024-02-04T03:41:14;101360.81;;;17.78;
46015;BME280;36844;51.898;-0.874;2024-02-04T03:43:39;101364.31;;;17.83;
46015;BME280;36844;51.898;-0.874;2024-02-04T03:46:05;101348.47;;;17.74;
46015;BME280;36844;51.898;-0.874;2024-02-04T03:48:30;101364.28;;;17.79;
46015;BME280;36844;51.898;-0.874;2024-02-04T03:50:55;101360.78;;;17.75;
46015;BME280;36844;51.898;-0.874;2024-02-04T03:53:21;101359.28;;;17.77;
46015;BME280;36844;51.898;-0.874;2024-02-04T03:55:48;101344.97;;;17.73;
46015;BME280;36844;51.898;-0.874;2024-02-04T03:58:13;101342.28;;;17.73;
46015;BME280;36844;51.898;-0.874;2024-02-04T04:00:39;101322.22;;;17.67;
46015;BME280;36844;51.898;-0.874;2024-02-04T04:03:05;101332.66;;;17.72;
46015;BME280;36844;51.898;-0.874;2024-02-04T04:05:30;101341.56;;;17.77;
46015;BME280;36844;51.898;-0.874;2024-02-04T04:07:55;101323.75;;;17.65;
46015;BME280;36844;51.898;-0.874;2024-02-04T04:10:21;101321.88;;;17.69;
46015;BME280;36844;51.898;-0.874;2024-02-04T04:12:46;101322.59;;;17.66;
46015;BME280;36844;51.898;-0.874;2024-02-04T04:15:11;101314.13;;;17.67;
46015;BME280;36844;51.898;-0.874;2024-02-04T04:17:37;101328.03;;;17.69;
46015;BME280;36844;51.898;-0.874;2024-02-04T04:20:04;101310.25;;;17.61;
46015;BME280;36844;51.898;-0.874;2024-02-04T04:22:29;101310.22;;;17.58;
46015;BME280;36844;51.898;-0.874;2024-02-04T04:24:55;101304.81;;;17.58;
46015;BME280;36844;51.898;-0.874;2024-02-04T04:27:20;101308.31;;;17.58;
46015;BME280;36844;51.898;-0.874;2024-02-04T04:29:45;101323.41;;;17.70;
46015;BME280;36844;51.898;-0.874;2024-02-04T04:32:10;101290.91;;;17.52;
46015;BME280;36844;51.898;-0.874;2024-02-04T04:34:36;101300.97;;;17.59;
46015;BME280;36844;51.898;-0.874;2024-02-04T04:37:01;101283.28;;;17.58;
46015;BME280;36844;51.898;-0.874;2024-02-04T04:39:26;101293.34;;;17.64;
46015;BME280;36844;51.898;-0.874;2024-02-04T04:41:52;101287.88;;;17.57;
46015;BME280;36844;51.898;-0.874;2024-02-04T04:44:17;101280.53;;;17.51;
46015;BME280;36844;51.898;-0.874;2024-02-04T04:46:42;101282.13;;;17.59;
46015;BME280;36844;51.898;-0.874;2024-02-04T04:49:08;101276.31;;;17.57;
46015;BME280;36844;51.898;-0.874;2024-02-04T04:51:33;101279.38;;;17.55;
46015;BME280;36844;51.898;-0.874;2024-02-04T04:53:59;101289.47;;;17.62;
46015;BME280;36844;51.898;-0.874;2024-02-04T04:56:24;101279.78;;;17.54;
46015;BME280;36844;51.898;-0.874;2024-02-04T04:58:49;101280.13;;;17.52;
46015;BME280;36844;51.898;-0.874;2024-02-04T05:01:16;101292.16;;;17.58;
46015;BME280;36844;51.898;-0.874;2024-02-04T05:03:41;101287.09;;;17.57;
46015;BME280;36844;51.898;-0.874;2024-02-04T05:06:06;101283.94;;;17.51;
46015;BME280;36844;51.898;-0.874;2024-02-04T05:08:32;101282.78;;;17.49;
46015;BME280;36844;51.898;-0.874;2024-02-04T05:10:57;101292.81;;;17.52;
46015;BME280;36844;51.898;-0.874;2024-02-04T05:13:22;101295.19;;;17.57;
46015;BME280;36844;51.898;-0.874;2024-02-04T05:15:48;101299.78;;;17.56;
46015;BME280;36844;51.898;-0.874;2024-02-04T05:18:13;101283.19;;;17.47;
46015;BME280;36844;51.898;-0.874;2024-02-04T05:20:38;101296.66;;;17.47;
46015;BME280;36844;51.898;-0.874;2024-02-04T05:23:03;101278.50;;;17.44;
46015;BME280;36844;51.898;-0.874;2024-02-04T05:25:29;101288.16;;;17.49;
46015;BME280;36844;51.898;-0.874;2024-02-04T05:27:54;101280.00;;;17.38;
46015;BME280;36844;51.898;-0.874;2024-02-04T05:30:19;101300.09;;;17.51;
46015;BME280;36844;51.898;-0.874;2024-02-04T05:32:45;101297.38;;;17.48;
46015;BME280;36844;51.898;-0.874;2024-02-04T05:35:10;101283.47;;;17.39;
46015;BME280;36844;51.898;-0.874;2024-02-04T05:37:36;101287.75;;;17.43;
46015;BME280;36844;51.898;-0.874;2024-02-04T05:40:02;101301.22;;;17.43;
46015;BME280;36844;51.898;-0.874;2024-02-04T05:42:28;101304.75;;;17.47;
46015;BME280;36844;51.898;-0.874;2024-02-04T05:44:53;101303.13;;;17.43;
46015;BME280;36844;51.898;-0.874;2024-02-04T05:47:18;101306.25;;;17.48;
46015;BME280;36844;51.898;-0.874;2024-02-04T05:49:44;101292.69;;;17.38;
46015;BME280;36844;51.898;-0.874;2024-02-04T05:52:09;101288.81;;;17.35;
46015;BME280;36844;51.898;-0.874;2024-02-04T05:54:38;101306.66;;;17.47;
46015;BME280;36844;51.898;-0.874;2024-02-04T05:57:06;101309.34;;;17.47;
46015;BME280;36844;51.898;-0.874;2024-02-04T05:59:33;101295.03;;;17.39;
46015;BME280;36844;51.898;-0.874;2024-02-04T06:01:58;101296.19;;;17.42;
46015;BME280;36844;51.898;-0.874;2024-02-04T06:04:23;101290.03;;;17.41;
46015;BME280;36844;51.898;-0.874;2024-02-04T06:06:49;101280.78;;;17.39;
46015;BME280;36844;51.898;-0.874;2024-02-04T06:09:14;101273.50;;;17.39;
46015;BME280;36844;51.898;-0.874;2024-02-04T06:11:40;101256.06;;;17.30;
46015;BME280;36844;51.898;-0.874;2024-02-04T06:14:05;101264.59;;;17.35;
46015;BME280;36844;51.898;-0.874;2024-02-04T06:16:30;101267.28;;;17.35;
46015;BME280;36844;51.898;-0.874;2024-02-04T06:18:56;101262.25;;;17.34;
46015;BME280;36844;51.898;-0.874;2024-02-04T06:21:23;101261.91;;;17.35;
46015;BME280;36844;51.898;-0.874;2024-02-04T06:23:48;101271.53;;;17.40;
46015;BME280;36844;51.898;-0.874;2024-02-04T06:26:13;101262.63;;;17.32;
46015;BME280;36844;51.898;-0.874;2024-02-04T06:28:39;101262.22;;;17.30;
46015;BME280;36844;51.898;-0.874;2024-02-04T06:31:04;101266.78;;;17.26;
46015;BME280;36844;51.898;-0.874;2024-02-04T06:33:29;101258.75;;;17.30;
46015;BME280;36844;51.898;-0.874;2024-02-04T06:35:55;101260.66;;;17.29;
46015;BME280;36844;51.898;-0.874;2024-02-04T06:38:21;101260.69;;;17.33;
46015;BME280;36844;51.898;-0.874;2024-02-04T06:40:46;101258.41;;;17.31;
46015;BME280;36844;51.898;-0.874;2024-02-04T06:43:11;101252.97;;;17.28;
46015;BME280;36844;51.898;-0.874;2024-02-04T06:45:37;101261.91;;;17.35;
46015;BME280;36844;51.898;-0.874;2024-02-04T06:48:02;101253.38;;;17.33;
46015;BME280;36844;51.898;-0.874;2024-02-04T06:50:28;101252.16;;;17.24;
46015;BME280;36844;51.898;-0.874;2024-02-04T06:52:53;101249.50;;;17.27;
46015;BME280;36844;51.898;-0.874;2024-02-04T06:55:18;101247.91;;;17.23;
46015;BME280;36844;51.898;-0.874;2024-02-04T06:57:44;101244.13;;;17.27;
46015;BME280;36844;51.898;-0.874;2024-02-04T07:00:09;101244.50;;;17.29;
46015;BME280;36844;51.898;-0.874;2024-02-04T07:02:36;101239.94;;;17.37;
46015;BME280;36844;51.898;-0.874;2024-02-04T07:05:02;101234.22;;;17.38;
46015;BME280;36844;51.898;-0.874;2024-02-04T07:07:28;101222.94;;;17.26;
46015;BME280;36844;51.898;-0.874;2024-02-04T07:09:53;101240.75;;;17.41;
46015;BME280;36844;51.898;-0.874;2024-02-04T07:12:18;101226.13;;;17.35;
46015;BME280;36844;51.898;-0.874;2024-02-04T07:14:44;101238.44;;;17.36;
46015;BME280;36844;51.898;-0.874;2024-02-04T07:17:09;101245.38;;;17.40;
46015;BME280;36844;51.898;-0.874;2024-02-04T07:19:37;101253.16;;;17.49;
46015;BME280;36844;51.898;-0.874;2024-02-04T07:22:02;101226.53;;;17.40;
46015;BME280;36844;51.898;-0.874;2024-02-04T07:24:28;101240.84;;;17.51;
46015;BME280;36844;51.898;-0.874;2024-02-04T07:26:53;101223.53;;;17.49;
46015;BME280;36844;51.898;-0.874;2024-02-04T07:29:18;101245.97;;;17.63;
46015;BME280;36844;51.898;-0.874;2024-02-04T07:31:44;101242.50;;;17.63;
46015;BME280;36844;51.898;-0.874;2024-02-04T07:34:09;101251.81;;;17.69;
46015;BME280;36844;51.898;-0.874;2024-02-04T07:36:34;101251.78;;;17.65;
46015;BME280;36844;51.898;-0.874;2024-02-04T07:39:00;101251.84;;;17.72;
46015;BME280;36844;51.898;-0.874;2024-02-04T07:41:27;101244.13;;;17.74;
46015;BME280;36844;51.898;-0.874;2024-02-04T07:43:52;101269.25;;;17.86;
46015;BME280;36844;51.898;-0.874;2024-02-04T07:46:18;101268.09;;;17.87;
46015;BME280;36844;51.898;-0.874;2024-02-04T07:48:43;101256.19;;;17.88;
46015;BME280;36844;51.898;-0.874;2024-02-04T07:51:08;101254.34;;;17.99;
46015;BME280;36844;51.898;-0.874;2024-02-04T07:53:34;101265.13;;;17.99;
46015;BME280;36844;51.898;-0.874;2024-02-04T07:56:01;101253.16;;;17.96;
46015;BME280;36844;51.898;-0.874;2024-02-04T07:58:28;101249.69;;;17.96;
46015;BME280;36844;51.898;-0.874;2024-02-04T08:00:54;101250.09;;;17.98;
46015;BME280;36844;51.898;-0.874;2024-02-04T08:03:19;101237.78;;;17.97;
46015;BME280;36844;51.898;-0.874;2024-02-04T08:05:44;101256.28;;;18.02;
46015;BME280;36844;51.898;-0.874;2024-02-04T08:08:10;101248.97;;;18.02;
46015;BME280;36844;51.898;-0.874;2024-02-04T08:10:35;101250.53;;;18.07;
46015;BME280;36844;51.898;-0.874;2024-02-04T08:13:00;101254.00;;;18.04;
46015;BME280;36844;51.898;-0.874;2024-02-04T08:15:26;101245.91;;;18.04;
46015;BME280;36844;51.898;-0.874;2024-02-04T08:17:51;101249.41;;;18.08;
46015;BME280;36844;51.898;-0.874;2024-02-04T08:20:17;101255.91;;;18.07;
46015;BME280;36844;51.898;-0.874;2024-02-04T08:22:43;101244.75;;;18.05;
46015;BME280;36844;51.898;-0.874;2024-02-04T08:25:08;101261.78;;;18.16;
46015;BME280;36844;51.898;-0.874;2024-02-04T08:27:37;101271.44;;;18.20;
46015;BME280;36844;51.898;-0.874;2024-02-04T08:30:02;101248.19;;;18.02;
46015;BME280;36844;51.898;-0.874;2024-02-04T08:32:28;101268.31;;;18.18;
46015;BME280;36844;51.898;-0.874;2024-02-04T08:34:53;101253.25;;;18.14;
46015;BME280;36844;51.898;-0.874;2024-02-04T08:37:18;101271.44;;;18.20;
46015;BME280;36844;51.898;-0.874;2024-02-04T08:39:45;101272.59;;;18.23;
46015;BME280;36844;51.898;-0.874;2024-02-04T08:42:10;101274.09;;;18.17;
46015;BME280;36844;51.898;-0.874;2024-02-04T08:44:35;101276.88;;;18.24;
46015;BME280;36844;51.898;-0.874;2024-02-04T08:47:01;101276.88;;;18.27;
46015;BME280;36844;51.898;-0.874;2024-02-04T08:49:27;101267.25;;;18.30;
46015;BME280;36844;51.898;-0.874;2024-02-04T08:51:52;101250.25;;;18.26;
46015;BME280;36844;51.898;-0.874;2024-02-04T08:54:17;101251.06;;;18.30;
46015;BME280;36844;51.898;-0.874;2024-02-04T08:56:42;101237.94;;;18.28;
46015;BME280;36844;51.898;-0.874;2024-02-04T08:59:08;101241.03;;;18.27;
46015;BME280;36844;51.898;-0.874;2024-02-04T09:01:33;101249.16;;;18.34;
46015;BME280;36844;51.898;-0.874;2024-02-04T09:03:58;101253.00;;;18.33;
46015;BME280;36844;51.898;-0.874;2024-02-04T09:06:24;101240.25;;;18.26;
46015;BME280;36844;51.898;-0.874;2024-02-04T09:08:49;101252.66;;;18.38;
46015;BME280;36844;51.898;-0.874;2024-02-04T09:11:15;101269.22;;;18.40;
46015;BME280;36844;51.898;-0.874;2024-02-04T09:13:44;101265.69;;;18.29;
46015;BME280;36844;51.898;-0.874;2024-02-04T09:16:10;101274.56;;;18.33;
46015;BME280;36844;51.898;-0.874;2024-02-04T09:18:36;101279.63;;;18.38;
46015;BME280;36844;51.898;-0.874;2024-02-04T09:21:01;101277.72;;;18.38;
46015;BME280;36844;51.898;-0.874;2024-02-04T09:23:27;101279.97;;;18.36;
46015;BME280;36844;51.898;-0.874;2024-02-04T09:25:52;101278.84;;;18.37;
46015;BME280;36844;51.898;-0.874;2024-02-04T09:28:17;101275.38;;;18.37;
46015;BME280;36844;51.898;-0.874;2024-02-04T09:30:43;101290.06;;;18.46;
46015;BME280;36844;51.898;-0.874;2024-02-04T09:33:08;101283.13;;;18.45;
46015;BME280;36844;51.898;-0.874;2024-02-04T09:35:33;101279.25;;;18.43;
46015;BME280;36844;51.898;-0.874;2024-02-04T09:37:59;101287.78;;;18.48;
46015;BME280;36844;51.898;-0.874;2024-02-04T09:40:25;101281.19;;;18.46;
46015;BME280;36844;51.898;-0.874;2024-02-04T09:42:50;101280.06;;;18.47;
46015;BME280;36844;51.898;-0.874;2024-02-04T09:45:17;101293.56;;;18.50;
46015;BME280;36844;51.898;-0.874;2024-02-04T09:47:44;101291.66;;;18.51;
46015;BME280;36844;51.898;-0.874;2024-02-04T09:50:10;101290.84;;;18.43;
46015;BME280;36844;51.898;-0.874;2024-02-04T09:52:39;101285.47;;;18.50;
46015;BME280;36844;51.898;-0.874;2024-02-04T09:55:07;101282.38;;;18.45;
46015;BME280;36844;51.898;-0.874;2024-02-04T09:57:34;101287.78;;;18.48;
46015;BME280;36844;51.898;-0.874;2024-02-04T10:00:02;101273.47;;;18.41;
46015;BME280;36844;51.898;-0.874;2024-02-04T10:02:30;101279.28;;;18.50;
46015;BME280;36844;51.898;-0.874;2024-02-04T10:04:57;101270.81;;;18.48;
46015;BME280;36844;51.898;-0.874;2024-02-04T10:07:22;101271.97;;;18.50;
46015;BME280;36844;51.898;-0.874;2024-02-04T10:09:49;101278.53;;;18.56;
46015;BME280;36844;51.898;-0.874;2024-02-04T10:12:15;101263.09;;;18.43;
46015;BME280;36844;51.898;-0.874;2024-02-04T10:14:40;101277.78;;;18.56;
46015;BME280;36844;51.898;-0.874;2024-02-04T10:17:06;101283.94;;;18.56;
46015;BME280;36844;51.898;-0.874;2024-02-04T10:19:32;101260.78;;;18.45;
46015;BME280;36844;51.898;-0.874;2024-02-04T10:22:01;101266.97;;;18.45;
46015;BME280;36844;51.898;-0.874;2024-02-04T10:24:27;101273.09;;;18.46;
46015;BME280;36844;51.898;-0.874;2024-02-04T10:26:54;101268.06;;;18.37;
46015;BME280;36844;51.898;-0.874;2024-02-04T10:29:20;101275.81;;;18.46;
46015;BME280;36844;51.898;-0.874;2024-02-04T10:31:46;101272.69;;;18.44;
46015;BME280;36844;51.898;-0.874;2024-02-04T10:34:11;101258.06;;;18.38;
46015;BME280;36844;51.898;-0.874;2024-02-04T10:36:37;101263.81;;;18.40;
46015;BME280;36844;51.898;-0.874;2024-02-04T10:39:03;101254.56;;;18.34;
46015;BME280;36844;51.898;-0.874;2024-02-04T10:41:29;101272.34;;;18.42;
46015;BME280;36844;51.898;-0.874;2024-02-04T10:43:58;101282.75;;;18.47;
46015;BME280;36844;51.898;-0.874;2024-02-04T10:46:27;101263.81;;;18.40;
46015;BME280;36844;51.898;-0.874;2024-02-04T10:48:56;101269.97;;;18.37;
46015;BME280;36844;51.898;-0.874;2024-02-04T10:51:26;101279.66;;;18.45;
46015;BME280;36844;51.898;-0.874;2024-02-04T10:53:54;101271.53;;;18.38;
46015;BME280;36844;51.898;-0.874;2024-02-04T10:56:32;101275.00;;;18.35;
46015;BME280;36844;51.898;-0.874;2024-02-04T10:59:00;101291.56;;;18.37;
46015;BME280;36844;51.898;-0.874;2024-02-04T11:01:28;101288.50;;;18.35;
46015;BME280;36844;51.898;-0.874;2024-02-04T11:03:54;101288.09;;;18.40;
46015;BME280;36844;51.898;-0.874;2024-02-04T11:06:20;101273.44;;;18.34;
46015;BME280;36844;51.898;-0.874;2024-02-04T11:08:47;101274.56;;;18.33;
46015;BME280;36844;51.898;-0.874;2024-02-04T11:11:13;101271.50;;;18.27;
46015;BME280;36844;51.898;-0.874;2024-02-04T11:13:40;101259.91;;;18.27;
46015;BME280;36844;51.898;-0.874;2024-02-04T11:16:20;101276.13;;;18.30;
46015;BME280;36844;51.898;-0.874;2024-02-04T11:27:12;101276.09;;;18.27;
46015;BME280;36844;51.898;-0.874;2024-02-04T11:29:39;101268.78;;;18.24;
46015;BME280;36844;51.898;-0.874;2024-02-04T11:32:05;101276.44;;;18.25;
46015;BME280;36844;51.898;-0.874;2024-02-04T11:34:32;101257.91;;;18.17;
46015;BME280;36844;51.898;-0.874;2024-02-04T11:36:58;101273.75;;;18.25;
46015;BME280;36844;51.898;-0.874;2024-02-04T11:39:24;101263.38;;;18.20;
46015;BME280;36844;51.898;-0.874;2024-02-04T11:41:50;101274.53;;;18.26;
46015;BME280;36844;51.898;-0.874;2024-02-04T11:44:25;101264.88;;;18.21;
46015;BME280;36844;51.898;-0.874;2024-02-04T11:46:51;101264.88;;;18.25;
46015;BME280;36844;51.898;-0.874;2024-02-04T11:49:24;101259.88;;;18.20;
46015;BME280;36844;51.898;-0.874;2024-02-04T11:51:51;101264.53;;;18.26;
46015;BME280;36844;51.898;-0.874;2024-02-04T11:54:17;101261.47;;;18.28;
46015;BME280;36844;51.898;-0.874;2024-02-04T11:56:48;101252.19;;;18.25;
46015;BME280;36844;51.898;-0.874;2024-02-04T11:59:19;101243.75;;;18.30;
46015;BME280;36844;51.898;-0.874;2024-02-04T12:01:46;101239.47;;;18.26;
46015;BME280;36844;51.898;-0.874;2024-02-04T12:04:17;101223.72;;;18.28;
46015;BME280;36844;51.898;-0.874;2024-02-04T12:06:43;101231.41;;;18.29;
46015;BME280;36844;51.898;-0.874;2024-02-04T12:09:09;101243.78;;;18.37;
46015;BME280;36844;51.898;-0.874;2024-02-04T12:11:38;101227.19;;;18.32;
46015;BME280;36844;51.898;-0.874;2024-02-04T12:14:05;101237.63;;;18.37;
46015;BME280;36844;51.898;-0.874;2024-02-04T12:16:32;101214.88;;;18.34;
46015;BME280;36844;51.898;-0.874;2024-02-04T12:18:59;101207.16;;;18.36;
46015;BME280;36844;51.898;-0.874;2024-02-04T12:21:25;101199.06;;;18.36;
46015;BME280;36844;51.898;-0.874;2024-02-04T12:23:51;101208.34;;;18.46;
46015;BME280;36844;51.898;-0.874;2024-02-04T12:26:16;101205.25;;;18.40;
46015;BME280;36844;51.898;-0.874;2024-02-04T12:28:42;101201.81;;;18.43;
46015;BME280;36844;51.898;-0.874;2024-02-04T12:31:07;101207.97;;;18.44;
46015;BME280;36844;51.898;-0.874;2024-02-04T12:33:40;101211.84;;;18.50;
46015;BME280;36844;51.898;-0.874;2024-02-04T12:36:06;101203.75;;;18.43;
46015;BME280;36844;51.898;-0.874;2024-02-04T12:38:32;101187.16;;;18.41;
46015;BME280;36844;51.898;-0.874;2024-02-04T12:41:02;101187.56;;;18.46;
46015;BME280;36844;51.898;-0.874;2024-02-04T12:43:28;101179.84;;;18.38;
46015;BME280;36844;51.898;-0.874;2024-02-04T12:45:56;101184.09;;;18.46;
46015;BME280;36844;51.898;-0.874;2024-02-04T12:48:21;101198.75;;;18.52;
46015;BME280;36844;51.898;-0.874;2024-02-04T12:50:48;101198.75;;;18.55;
46015;BME280;36844;51.898;-0.874;2024-02-04T12:53:13;101185.66;;;18.54;
46015;BME280;36844;51.898;-0.874;2024-02-04T12:55:40;101190.66;;;18.52;
46015;BME280;36844;51.898;-0.874;2024-02-04T12:58:09;101196.84;;;18.56;
46015;BME280;36844;51.898;-0.874;2024-02-04T13:00:37;101181.41;;;18.53;
46015;BME280;36844;51.898;-0.874;2024-02-04T13:03:05;101183.75;;;18.58;
46015;BME280;36844;51.898;-0.874;2024-02-04T13:05:31;101183.75;;;18.58;
46015;BME280;36844;51.898;-0.874;2024-02-04T13:07:58;101165.97;;;18.46;
46015;BME280;36844;51.898;-0.874;2024-02-04T13:10:28;101174.88;;;18.57;
46015;BME280;36844;51.898;-0.874;2024-02-04T13:15:29;101173.69;;;18.48;
46015;BME280;36844;51.898;-0.874;2024-02-04T13:17:55;101183.75;;;18.58;
46015;BME280;36844;51.898;-0.874;2024-02-04T13:20:21;101163.28;;;18.50;
46015;BME280;36844;51.898;-0.874;2024-02-04T13:22:47;101170.63;;;18.56;
46015;BME280;36844;51.898;-0.874;2024-02-04T13:25:12;101156.38;;;18.49;
46015;BME280;36844;51.898;-0.874;2024-02-04T13:27:38;101150.19;;;18.48;
46015;BME280;36844;51.898;-0.874;2024-02-04T13:30:03;101140.91;;;18.46;
46015;BME280;36844;51.898;-0.874;2024-02-04T13:32:29;101146.34;;;18.53;
46015;BME280;36844;51.898;-0.874;2024-02-04T13:34:54;101142.88;;;18.52;
46015;BME280;36844;51.898;-0.874;2024-02-04T13:37:20;101134.00;;;18.45;
46015;BME280;36844;51.898;-0.874;2024-02-04T13:39:46;101127.44;;;18.46;
46015;BME280;36844;51.898;-0.874;2024-02-04T13:42:11;101127.03;;;18.40;